Time;durP1;ratioP1;P1;durP2;ratioP2;P2;SDS_P1;SDS_P2;PMS_P1;PMS_P2;Temp;Humidity;BMP_temperature;BMP_pressure;BME280_temperature;BME280_humidity;BME280_pressure;Samples;Min_cycle;Max_cycle;Signal;HPM_P1;HPM_P2
2022/04/13 00:00:35;;;;;;;11.95;10.85;;;9.70;1.00;;;9.57;44.41;101224.09;4803978;29;20317;-73
2022/04/13 00:03:03;;;;;;;11.45;9.82;;;9.60;1.00;;;9.63;44.37;101234.16;4832982;29;20212;-71
2022/04/13 00:05:34;;;;;;;13.43;11.10;;;9.60;1.00;;;9.62;44.70;101231.63;4803280;29;20738;-72
2022/04/13 00:08:06;;;;;;;11.40;9.40;;;9.60;1.00;;;9.58;44.48;101225.78;4803699;29;20220;-73
2022/04/13 00:10:35;;;;;;;11.32;9.90;;;9.50;1.00;;;9.53;44.50;101222.81;4804310;29;20595;-73
2022/04/13 00:13:05;;;;;;;11.52;10.20;;;9.50;1.00;;;9.51;44.69;101214.03;4804739;29;20197;-71
2022/04/13 00:15:34;;;;;;;20.08;10.00;;;9.50;1.00;;;9.47;45.01;101215.44;4804448;29;20670;-71
2022/04/13 00:18:06;;;;;;;13.00;10.18;;;9.50;1.00;;;9.44;44.91;101213.94;4804376;29;20173;-74
2022/04/13 00:20:37;;;;;;;13.18;10.32;;;9.40;1.00;;;9.37;45.29;101207.63;4803752;29;20270;-72
2022/04/13 00:23:07;;;;;;;13.05;10.68;;;9.40;1.00;;;9.32;45.24;101220.00;4804223;29;20182;-73
2022/04/13 00:25:38;;;;;;;13.80;11.73;;;9.30;1.00;;;9.25;45.55;101219.06;4804305;29;20201;-72
2022/04/13 00:28:09;;;;;;;13.57;10.40;;;9.30;1.00;;;9.24;45.78;101217.41;4803956;29;20313;-72
2022/04/13 00:30:39;;;;;;;12.27;9.77;;;9.20;1.00;;;9.16;45.89;101215.59;4804686;29;20280;-71
2022/04/13 00:33:08;;;;;;;18.00;10.70;;;9.20;1.00;;;9.02;45.98;101209.19;4804807;29;20178;-72
2022/04/13 00:35:39;;;;;;;11.05;9.40;;;9.10;1.00;;;8.96;46.48;101209.06;4804465;29;20166;-70
2022/04/13 00:38:07;;;;;;;14.75;11.88;;;9.10;1.00;;;8.93;46.55;101213.00;4804868;29;20190;-71
2022/04/13 00:40:40;;;;;;;13.02;10.10;;;9.00;1.00;;;8.98;46.63;101210.56;4803244;29;20224;-70
2022/04/13 00:43:09;;;;;;;15.75;10.10;;;9.00;1.00;;;9.03;46.38;101208.16;4803124;29;20238;-71
2022/04/13 00:45:38;;;;;;;13.05;11.70;;;9.00;1.00;;;9.00;46.52;101202.31;4808170;29;20194;-71
2022/04/13 00:48:10;;;;;;;16.48;10.43;;;9.00;1.00;;;8.87;46.96;101210.16;4809779;29;20304;-72
2022/04/13 00:50:41;;;;;;;12.57;10.05;;;8.90;1.00;;;8.87;46.93;101211.00;4810067;29;20213;-72
2022/04/13 00:53:17;;;;;;;13.93;11.60;;;8.90;1.00;;;8.84;47.13;101216.78;4810018;29;20191;-71
2022/04/13 00:55:49;;;;;;;11.65;10.07;;;8.90;1.00;;;8.81;47.23;101219.84;4809983;29;20268;-72
2022/04/13 00:58:23;;;;;;;13.32;10.68;;;8.80;1.00;;;8.71;47.50;101221.97;4810366;29;20180;-72
2022/04/13 01:00:53;;;;;;;15.50;10.90;;;8.80;1.00;;;8.63;47.68;101219.31;4810614;29;20270;-72
2022/04/13 01:03:25;;;;;;;14.73;11.45;;;8.70;1.00;;;8.76;47.70;101216.88;4814125;29;20238;-73
2022/04/13 01:05:55;;;;;;;10.75;9.65;;;8.70;1.00;;;8.75;47.50;101223.28;4809730;29;20173;-73
2022/04/13 01:08:28;;;;;;;11.80;9.82;;;8.70;1.00;;;8.79;47.73;101218.34;4809317;29;20234;-72
2022/04/13 01:11:00;;;;;;;22.30;12.70;;;8.70;1.00;;;8.71;47.74;101219.28;4808736;29;20275;-71
2022/04/13 01:13:29;;;;;;;15.95;11.00;;;8.70;1.00;;;8.61;48.09;101216.00;4808621;29;20203;-71
2022/04/13 01:15:58;;;;;;;16.23;10.82;;;8.60;1.00;;;8.59;48.20;101215.31;4808701;29;20272;-72
2022/04/13 01:18:27;;;;;;;14.73;12.00;;;8.60;1.00;;;8.50;48.44;101224.50;4809236;29;20197;-72
2022/04/13 01:20:57;;;;;;;14.80;11.52;;;8.60;1.00;;;8.47;48.47;101223.00;4808647;29;20327;-72
2022/04/13 01:23:28;;;;;;;13.70;10.43;;;8.50;1.00;;;8.41;48.90;101215.66;4809119;29;20285;-71
2022/04/13 01:25:57;;;;;;;14.02;10.38;;;8.50;1.00;;;8.39;48.81;101206.88;4808858;29;20235;-72
2022/04/13 01:28:26;;;;;;;13.27;10.02;;;8.40;1.00;;;8.36;48.93;101211.81;4808669;29;20232;-71
2022/04/13 01:30:58;;;;;;;15.68;10.15;;;8.40;1.00;;;8.24;49.45;101206.78;4808658;29;20278;-71
2022/04/13 01:33:30;;;;;;;12.90;10.30;;;8.30;1.00;;;8.36;49.05;101195.63;4807314;29;20195;-71
2022/04/13 01:36:01;;;;;;;18.13;11.63;;;8.30;1.00;;;8.37;49.23;101197.31;4807989;29;20375;-72
2022/04/13 01:38:32;;;;;;;12.85;10.85;;;8.40;1.00;;;8.35;49.11;101193.94;4808779;29;20209;-72
2022/04/13 01:41:00;;;;;;;13.23;10.30;;;8.30;1.00;;;8.27;49.30;101202.91;4809118;29;20221;-71
2022/04/13 01:43:29;;;;;;;17.15;11.80;;;8.30;1.00;;;8.26;49.15;101198.53;4808913;29;20200;-71
2022/04/13 01:45:58;;;;;;;12.20;10.65;;;8.30;1.00;;;8.15;49.64;101201.63;4808622;29;20524;-71
2022/04/13 01:48:29;;;;;;;18.85;11.70;;;8.20;1.00;;;8.11;49.71;101203.00;4808038;29;20181;-71
2022/04/13 01:50:58;;;;;;;12.95;11.20;;;8.20;1.00;;;8.19;49.75;101205.63;4807928;29;20237;-72
2022/04/13 01:53:27;;;;;;;14.18;11.68;;;8.20;1.00;;;8.24;49.51;101208.63;4808244;29;20782;-71
2022/04/13 01:55:57;;;;;;;15.27;10.73;;;8.20;1.00;;;8.18;49.53;101204.78;4806137;29;20196;-72
2022/04/13 01:58:27;;;;;;;14.00;11.20;;;8.20;1.00;;;8.11;50.09;101208.41;4805086;29;20186;-71
2022/04/13 02:00:55;;;;;;;15.40;12.00;;;8.20;1.00;;;8.00;50.04;101208.81;4805092;29;20248;-71
2022/04/13 02:03:25;;;;;;;13.65;12.00;;;8.10;1.00;;;8.08;50.33;101209.63;4805151;29;20216;-71
2022/04/13 02:05:54;;;;;;;15.32;11.07;;;8.10;1.00;;;8.13;49.77;101204.50;4834031;29;20201;-72
2022/04/13 02:08:24;;;;;;;14.13;10.88;;;8.10;1.00;;;8.14;49.91;101208.03;4805342;29;20356;-72
2022/04/13 02:10:53;;;;;;;14.00;11.35;;;8.10;1.00;;;8.12;49.84;101205.53;4805371;29;20723;-73
2022/04/13 02:13:23;;;;;;;15.68;11.95;;;8.10;1.00;;;8.06;50.23;101200.84;4806058;29;20196;-71
2022/04/13 02:15:52;;;;;;;16.25;11.15;;;8.10;1.00;;;8.08;50.36;101201.53;4805979;29;20189;-71
2022/04/13 02:18:21;;;;;;;15.50;11.00;;;8.10;1.00;;;8.01;50.30;101192.47;4805554;29;20182;-70
2022/04/13 02:20:50;;;;;;;13.02;11.35;;;8.10;1.00;;;7.96;50.59;101189.47;4805117;29;20224;-72
2022/04/13 02:23:19;;;;;;;19.80;11.57;;;8.00;1.00;;;7.97;50.43;101196.53;4834779;29;20225;-72
2022/04/13 02:25:47;;;;;;;14.90;11.50;;;8.00;1.00;;;7.97;50.50;101195.69;4805148;29;20534;-72
2022/04/13 02:28:16;;;;;;;15.43;10.93;;;8.00;1.00;;;7.84;50.80;101180.94;4805178;29;20232;-73
2022/04/13 02:30:46;;;;;;;13.13;9.90;;;7.90;1.00;;;7.77;50.92;101187.22;4806500;29;20592;-73
2022/04/13 02:33:16;;;;;;;15.98;11.02;;;7.90;1.00;;;7.83;50.87;101183.81;4834389;29;20251;-71
2022/04/13 02:35:45;;;;;;;13.70;11.45;;;7.90;1.00;;;7.88;50.83;101186.81;4805893;29;20194;-72
2022/04/13 02:38:13;;;;;;;15.15;10.77;;;7.90;1.00;;;7.85;51.04;101188.00;4806280;29;20206;-72
2022/04/13 02:40:42;;;;;;;15.35;12.27;;;7.90;1.00;;;7.82;50.96;101185.66;4805848;29;20213;-72
2022/04/13 02:43:12;;;;;;;19.85;13.20;;;7.90;1.00;;;7.77;51.23;101185.38;4804865;29;20194;-73
2022/04/13 02:45:41;;;;;;;14.27;11.93;;;7.80;1.00;;;7.81;50.86;101177.75;4836293;29;20328;-71
2022/04/13 02:48:11;;;;;;;18.20;12.23;;;7.80;1.00;;;7.88;50.80;101184.13;4806645;29;20182;-72
2022/04/13 02:50:39;;;;;;;17.85;12.60;;;7.90;1.00;;;7.80;51.17;101185.00;4804437;29;20247;-71
2022/04/13 02:53:08;;;;;;;14.93;10.48;;;7.80;1.00;;;7.75;51.42;101187.38;4804477;29;20363;-72
2022/04/13 02:55:37;;;;;;;18.45;11.32;;;7.80;1.00;;;7.72;51.49;101181.50;4804584;29;20194;-72
2022/04/13 02:58:06;;;;;;;15.88;11.80;;;7.80;1.00;;;7.69;51.60;101181.88;4804406;29;20198;-72
2022/04/13 03:00:34;;;;;;;13.82;12.13;;;7.70;1.00;;;7.78;51.05;101172.75;4804037;29;20210;-72
2022/04/13 03:03:03;;;;;;;14.52;11.20;;;7.70;1.00;;;7.75;51.35;101171.22;4804341;29;20190;-70
2022/04/13 03:05:34;;;;;;;17.30;12.27;;;7.70;1.00;;;7.67;51.81;101170.44;4803726;29;20182;-73
2022/04/13 03:08:03;;;;;;;11.20;10.10;;;7.70;1.00;;;7.76;51.37;101166.66;4804429;29;20680;-72
2022/04/13 03:10:31;;;;;;;15.27;12.60;;;7.70;1.00;;;7.68;51.46;101164.03;4804580;29;20599;-71
2022/04/13 03:13:00;;;;;;;16.38;11.40;;;7.70;1.00;;;7.62;51.71;101168.28;4804815;29;20178;-71
2022/04/13 03:15:30;;;;;;;17.98;11.98;;;7.60;1.00;;;7.68;51.38;101169.41;4804976;29;20565;-70
2022/04/13 03:17:59;;;;;;;15.07;11.38;;;7.70;1.00;;;7.67;51.53;101162.34;4803878;29;20244;-71
2022/04/13 03:20:27;;;;;;;16.40;11.45;;;7.70;1.00;;;7.65;51.58;101164.41;4804801;29;20229;-72
2022/04/13 03:22:57;;;;;;;16.63;11.85;;;7.60;1.00;;;7.63;51.89;101161.03;4804860;29;20205;-72
2022/04/13 03:25:27;;;;;;;13.80;10.75;;;7.60;1.00;;;7.57;52.15;101167.97;4833698;29;20539;-70
2022/04/13 03:27:56;;;;;;;15.73;11.43;;;7.60;1.00;;;7.58;51.99;101161.56;4804509;29;20198;-72
2022/04/13 03:30:24;;;;;;;14.63;11.77;;;7.60;1.00;;;7.50;52.03;101166.16;4804238;29;20608;-72
2022/04/13 03:32:53;;;;;;;14.35;11.32;;;7.50;1.00;;;7.51;52.22;101167.81;4804616;29;20186;-71
2022/04/13 03:35:23;;;;;;;15.27;11.48;;;7.50;1.00;;;7.43;52.59;101161.47;4803717;29;20268;-70
2022/04/13 03:37:52;;;;;;;14.43;11.75;;;7.50;1.00;;;7.34;52.72;101165.22;4803966;29;20201;-72
2022/04/13 03:40:23;;;;;;;18.50;12.73;;;7.40;1.00;;;7.37;52.39;101161.31;4804166;29;20223;-71
2022/04/13 03:42:51;;;;;;;17.08;12.02;;;7.40;1.00;;;7.41;52.53;101162.63;4804362;29;20201;-70
2022/04/13 03:45:20;;;;;;;16.70;11.52;;;7.40;1.00;;;7.31;52.86;101156.66;4804326;29;20197;-70
2022/04/13 03:47:49;;;;;;;15.48;11.70;;;7.40;1.00;;;7.39;52.72;101162.84;4803894;29;20194;-72
2022/04/13 03:50:18;;;;;;;18.77;13.18;;;7.40;1.00;;;7.34;52.55;101164.38;4803970;29;21059;-74
2022/04/13 03:52:47;;;;;;;16.23;11.90;;;7.40;1.00;;;7.36;52.54;101171.25;4804219;29;20190;-72
2022/04/13 03:55:19;;;;;;;16.50;10.93;;;7.40;1.00;;;7.20;52.99;101168.63;4803673;29;20284;-72
2022/04/13 03:57:50;;;;;;;13.65;12.00;;;7.30;1.00;;;7.13;53.90;101169.47;4803682;29;20181;-71
2022/04/13 04:00:19;;;;;;;14.60;12.32;;;7.30;1.00;;;7.22;53.12;101168.44;4803379;29;20213;-72
2022/04/13 04:02:48;;;;;;;14.95;11.55;;;7.30;1.00;;;7.27;53.33;101171.44;4803604;29;20193;-72
2022/04/13 04:05:17;;;;;;;20.00;13.63;;;7.30;1.00;;;7.28;53.15;101179.34;4803471;29;20250;-72
2022/04/13 04:07:46;;;;;;;18.52;12.40;;;7.30;1.00;;;7.26;52.93;101175.19;4803558;29;20284;-71
2022/04/13 04:10:15;;;;;;;14.88;12.13;;;7.30;1.00;;;7.33;52.95;101182.38;4803563;29;20244;-71
2022/04/13 04:12:44;;;;;;;12.43;11.13;;;7.30;1.00;;;7.33;52.74;101179.69;4803842;29;20248;-70
2022/04/13 04:15:14;;;;;;;16.38;12.35;;;7.30;1.00;;;7.40;52.54;101183.38;4832509;29;20201;-71
2022/04/13 04:17:42;;;;;;;17.30;12.60;;;7.40;1.00;;;7.33;52.92;101186.91;4803838;29;20220;-70
2022/04/13 04:20:12;;;;;;;14.95;12.57;;;7.30;1.00;;;7.35;52.86;101188.44;4803171;29;20233;-73
2022/04/13 04:22:41;;;;;;;16.83;12.80;;;7.30;1.00;;;7.45;52.60;101187.38;4803184;29;20200;-71
2022/04/13 04:25:11;;;;;;;17.65;12.13;;;7.30;1.00;;;7.45;52.67;101184.69;4803732;29;20190;-74
2022/04/13 04:27:39;;;;;;;14.05;11.75;;;7.40;1.00;;;7.46;52.68;101180.97;4802969;29;20217;-71
2022/04/13 04:30:11;;;;;;;17.58;12.75;;;7.40;1.00;;;7.53;52.30;101190.03;4803082;29;20761;-71
2022/04/13 04:32:41;;;;;;;15.18;12.00;;;7.40;1.00;;;7.61;52.17;101187.28;4803183;29;20223;-70
2022/04/13 04:35:11;;;;;;;14.52;10.85;;;7.50;1.00;;;7.61;52.40;101185.44;4803671;29;20576;-73
2022/04/13 04:37:40;;;;;;;16.75;12.35;;;7.50;1.00;;;7.62;52.25;101184.44;4803432;29;20201;-72
2022/04/13 04:40:09;;;;;;;14.88;12.88;;;7.50;1.00;;;7.62;52.36;101187.13;4803144;29;20313;-72
2022/04/13 04:42:48;;;;;;;14.63;11.95;;;7.50;1.30;;;8.01;51.58;101187.06;4803796;29;20315;-72
2022/04/13 04:45:19;;;;;;;15.75;11.77;;;7.60;1.00;;;8.21;50.77;101182.88;4803362;29;20363;-70
2022/04/13 04:47:51;;;;;;;14.63;12.75;;;7.70;1.00;;;8.24;50.72;101177.13;4803602;29;20225;-73
2022/04/13 04:50:23;;;;;;;20.60;14.88;;;7.90;1.00;;;8.23;50.66;101180.84;4803249;29;20225;-69
2022/04/13 04:52:51;;;;;;;19.30;12.25;;;7.90;1.00;;;8.18;50.76;101188.63;4803273;29;20197;-70
2022/04/13 04:55:20;;;;;;;18.80;12.45;;;8.00;1.00;;;8.21;50.61;101177.50;4832284;29;20593;-73
2022/04/13 04:57:50;;;;;;;14.10;11.77;;;8.00;1.00;;;8.29;50.61;101185.53;4803231;29;20197;-70
2022/04/13 05:00:21;;;;;;;20.08;12.50;;;8.00;1.00;;;8.29;50.49;101181.97;4802855;29;20288;-71
2022/04/13 05:02:53;;;;;;;14.57;12.02;;;8.00;1.00;;;8.33;50.47;101191.41;4803322;29;20297;-72
2022/04/13 05:05:23;;;;;;;17.08;11.63;;;8.10;1.00;;;8.45;50.15;101189.13;4802971;29;20186;-71
2022/04/13 05:07:51;;;;;;;16.25;10.98;;;8.10;1.00;;;8.53;50.09;101192.59;4803455;29;20296;-71
2022/04/13 05:10:20;;;;;;;16.98;11.82;;;8.10;1.00;;;8.53;50.12;101192.59;4802888;29;20395;-71
2022/04/13 05:12:52;;;;;;;15.75;13.60;;;8.10;1.00;;;8.54;50.19;101188.03;4802836;29;20209;-73
2022/04/13 05:15:21;;;;;;;21.83;14.80;;;8.20;1.00;;;8.65;49.87;101195.72;4803095;29;20182;-73
2022/04/13 05:17:51;;;;;;;13.60;11.50;;;8.30;1.00;;;8.56;49.78;101196.81;4802437;29;20198;-70
2022/04/13 05:20:20;;;;;;;21.08;13.35;;;8.20;1.00;;;8.69;49.99;101197.88;4803026;29;20253;-70
2022/04/13 05:22:48;;;;;;;16.05;12.13;;;8.30;1.00;;;8.71;49.72;101200.38;4802738;29;20190;-71
2022/04/13 05:25:18;;;;;;;16.00;12.80;;;8.40;1.00;;;8.79;49.72;101196.75;4832485;29;20696;-70
2022/04/13 05:27:47;;;;;;;14.63;11.98;;;8.40;1.00;;;8.86;49.70;101201.22;4802744;29;20285;-69
2022/04/13 05:30:16;;;;;;;19.52;13.45;;;8.50;1.00;;;8.79;49.79;101213.78;4803231;29;20221;-72
2022/04/13 05:32:53;;;;;;;14.90;11.40;;;8.50;1.00;;;8.95;49.22;101210.94;4805432;29;20231;-72
2022/04/13 05:35:21;;;;;;;16.30;12.32;;;8.60;1.00;;;8.85;49.49;101210.38;4806492;29;20271;-72
2022/04/13 05:37:50;;;;;;;18.25;11.98;;;8.50;1.00;;;9.03;49.31;101216.25;4812908;29;20181;-73
2022/04/13 05:40:21;;;;;;;16.67;12.40;;;8.60;1.00;;;9.13;49.17;101206.03;4815526;29;20240;-73
2022/04/13 05:42:53;;;;;;;15.07;12.20;;;8.80;1.00;;;9.21;48.62;101212.34;4807911;29;20639;-73
2022/04/13 05:45:22;;;;;;;16.50;11.45;;;8.90;1.00;;;9.37;48.56;101207.63;4806525;29;20185;-73
2022/04/13 05:47:52;;;;;;;20.15;13.35;;;9.00;1.00;;;9.44;48.10;101213.94;4806667;29;20292;-72
2022/04/13 05:50:21;;;;;;;16.75;13.07;;;9.10;1.00;;;9.46;48.16;101219.16;4806560;29;20233;-73
2022/04/13 05:52:50;;;;;;;15.40;12.18;;;9.10;1.00;;;9.50;48.27;101213.19;4806384;29;20170;-74
2022/04/13 05:55:18;;;;;;;17.75;11.27;;;9.20;1.00;;;9.75;47.64;101223.69;4806156;29;20202;-71
2022/04/13 05:57:47;;;;;;;17.88;11.95;;;9.30;1.00;;;9.80;47.47;101219.41;4837518;29;20289;-70
2022/04/13 06:00:17;;;;;;;17.58;13.10;;;9.40;1.00;;;9.83;47.23;101226.28;4812040;29;20229;-72
2022/04/13 06:02:46;;;;;;;15.82;11.88;;;9.50;1.00;;;9.91;47.04;101216.22;4810830;29;20190;-72
2022/04/13 06:05:16;;;;;;;17.00;12.77;;;9.60;1.00;;;10.09;47.02;101225.75;4812465;29;20189;-72
2022/04/13 06:07:46;;;;;;;17.02;13.48;;;9.70;1.00;;;10.16;46.77;101224.03;4816062;29;20619;-72
2022/04/13 06:10:17;;;;;;;16.10;12.82;;;9.80;1.00;;;10.21;46.89;101227.81;4815430;29;20285;-71
2022/04/13 06:12:46;;;;;;;17.48;13.27;;;9.90;1.00;;;10.32;46.48;101227.31;4812934;29;20245;-70
2022/04/13 06:15:15;;;;;;;14.80;11.60;;;9.90;1.00;;;10.53;46.19;101241.88;4810687;29;20198;-72
2022/04/13 06:17:44;;;;;;;15.65;12.23;;;10.10;1.00;;;10.43;46.42;101234.06;4809377;29;20482;-71
2022/04/13 06:20:14;;;;;;;14.98;13.23;;;10.10;1.00;;;10.56;46.02;101236.91;4808136;29;20300;-72
2022/04/13 06:22:44;;;;;;;20.73;13.35;;;10.10;1.00;;;10.52;46.31;101232.91;4808260;29;20204;-75
2022/04/13 06:25:14;;;;;;;13.82;11.68;;;10.20;1.00;;;10.77;45.63;101233.34;4807852;29;20198;-73
2022/04/13 06:27:44;;;;;;;23.80;12.13;;;10.30;1.00;;;10.89;45.22;101229.09;4815496;29;20260;-72
2022/04/13 06:30:14;;;;;;;15.37;12.40;;;10.60;1.00;;;11.20;45.16;101234.09;4840681;29;20710;-74
2022/04/13 06:32:45;;;;;;;21.57;13.43;;;10.70;1.00;;;11.31;44.78;101237.09;4810760;29;20648;-74
2022/04/13 06:35:16;;;;;;;17.67;13.70;;;10.90;1.00;;;11.49;44.54;101228.44;4809692;29;20428;-72
2022/04/13 06:37:48;;;;;;;19.33;12.27;;;11.00;1.00;;;11.59;44.12;101237.06;4809992;29;20947;-72
2022/04/13 06:40:17;;;;;;;18.27;12.80;;;11.10;1.00;;;11.56;44.09;101237.47;4809429;29;20546;-71
2022/04/13 06:42:45;;;;;;;19.50;13.50;;;11.20;1.00;;;11.66;44.12;101234.38;4809610;29;20451;-74
2022/04/13 06:45:16;;;;;;;19.43;13.13;;;11.30;1.00;;;11.74;43.97;101239.66;4809634;29;20551;-74
2022/04/13 06:47:48;;;;;;;15.50;12.00;;;11.40;1.00;;;11.75;43.67;101238.63;4810349;29;20480;-71
2022/04/13 06:50:17;;;;;;;20.20;13.40;;;11.50;1.00;;;11.97;43.72;101247.47;4809549;29;20958;-71
2022/04/13 06:52:47;;;;;;;16.23;12.90;;;11.50;1.00;;;11.87;43.79;101247.00;4808806;29;20478;-72
2022/04/13 06:55:15;;;;;;;17.83;12.80;;;11.60;1.00;;;12.06;43.30;101252.50;4809950;29;20518;-72
2022/04/13 06:57:44;;;;;;;19.43;12.63;;;11.80;1.00;;;12.23;43.29;101253.00;4809578;29;20410;-73
2022/04/13 07:00:15;;;;;;;17.17;13.27;;;11.90;1.00;;;11.99;43.32;101258.97;4836437;29;20520;-74
2022/04/13 07:02:44;;;;;;;16.60;12.60;;;11.80;1.00;;;11.90;43.63;101246.63;4808124;29;20431;-72
2022/04/13 07:05:33;;;;;;;18.50;12.00;;;11.70;1.00;;;12.40;43.24;101250.72;4808529;29;20412;-72
2022/04/13 07:08:04;;;;;;;15.20;12.67;;;11.90;1.00;;;12.63;42.64;101254.75;4808001;29;20517;-71
2022/04/13 07:10:34;;;;;;;20.97;12.97;;;12.20;1.00;;;12.77;42.67;101254.78;4837182;29;20445;-71
2022/04/13 07:13:11;;;;;;;16.53;14.20;;;12.40;1.00;;;12.74;42.16;101256.00;4807092;29;20474;-71
2022/04/13 07:15:41;;;;;;;19.83;13.30;;;12.40;1.00;;;12.94;42.35;101250.59;4809936;29;20427;-73
2022/04/13 07:18:10;;;;;;;18.53;14.13;;;12.50;1.00;;;13.15;41.46;101253.13;4838030;29;20450;-73
2022/04/13 07:20:38;;;;;;;19.20;12.27;;;12.70;1.00;;;13.29;41.33;101262.94;4810703;29;20455;-73
2022/04/13 07:23:09;;;;;;;14.53;12.37;;;12.80;1.00;;;13.43;41.02;101261.88;4810835;29;20406;-73
2022/04/13 07:25:37;;;;;;;17.73;12.67;;;13.00;1.00;;;13.51;41.57;101265.44;4807805;29;20531;-72
2022/04/13 07:28:07;;;;;;;17.30;12.63;;;13.10;1.00;;;13.85;40.39;101268.66;4833911;29;20565;-74
2022/04/13 07:30:36;;;;;;;19.33;13.83;;;13.40;1.00;;;13.96;40.49;101266.31;4805796;29;20451;-73
2022/04/13 07:33:04;;;;;;;16.23;11.50;;;13.60;1.00;;;14.13;39.88;101262.91;4807094;29;20471;-73
2022/04/13 07:35:33;;;;;;;17.63;13.20;;;13.70;1.00;;;14.30;39.78;101264.06;4805060;29;20460;-72
2022/04/13 07:38:02;;;;;;;15.20;13.37;;;13.90;1.00;;;14.33;39.29;101270.94;4807122;29;20416;-74
2022/04/13 07:40:32;;;;;;;18.03;12.10;;;14.00;1.00;;;14.31;39.44;101265.75;4804189;29;20831;-73
2022/04/13 07:43:01;;;;;;;18.30;13.47;;;14.00;1.00;;;14.33;39.40;101265.50;4805941;29;20430;-73
2022/04/13 07:45:31;;;;;;;17.40;13.60;;;14.00;1.00;;;14.34;39.17;101265.28;4805798;29;20468;-74
2022/04/13 07:48:00;;;;;;;16.57;13.00;;;14.00;1.00;;;14.20;39.38;101266.41;4805467;29;20486;-74
2022/04/13 07:50:29;;;;;;;14.57;11.97;;;14.00;1.00;;;14.13;39.55;101272.97;4805773;29;20482;-73
2022/04/13 07:52:59;;;;;;;18.30;11.90;;;13.90;1.00;;;14.13;39.88;101268.34;4805409;29;20453;-72
2022/04/13 07:55:29;;;;;;;16.77;13.50;;;13.80;1.00;;;14.41;39.42;101272.63;4804532;29;20488;-73
2022/04/13 07:57:59;;;;;;;18.20;12.30;;;14.00;1.00;;;14.71;39.01;101280.00;4804561;29;20438;-71
2022/04/13 08:00:28;;;;;;;18.73;12.47;;;14.20;1.00;;;14.76;39.00;101273.88;4805222;29;20922;-73
2022/04/13 08:02:56;;;;;;;16.83;11.40;;;14.40;1.00;;;14.92;38.83;101276.06;4804774;29;20404;-70
2022/04/13 08:05:26;;;;;;;17.10;12.53;;;14.50;1.00;;;14.86;38.58;101268.78;4805791;29;20838;-72
2022/04/13 08:07:54;;;;;;;15.77;12.60;;;14.50;1.00;;;15.13;38.52;101272.13;4807833;29;20529;-74
2022/04/13 08:10:23;;;;;;;15.13;11.40;;;14.60;1.00;;;15.36;38.11;101263.28;4804297;29;20455;-71
2022/04/13 08:12:52;;;;;;;13.97;11.47;;;14.80;1.00;;;15.27;37.70;101270.09;4804374;29;20445;-73
2022/04/13 08:15:22;;;;;;;15.47;11.77;;;14.90;1.00;;;15.29;37.96;101268.84;4804177;29;20841;-72
2022/04/13 08:17:51;;;;;;;21.33;12.47;;;14.90;1.00;;;15.61;37.56;101275.03;4833394;29;20429;-72
2022/04/13 08:20:20;;;;;;;17.33;12.00;;;15.10;1.00;;;15.84;36.87;101272.47;4803582;29;20805;-71
2022/04/13 08:22:49;;;;;;;16.90;12.17;;;15.30;1.00;;;15.92;36.91;101266.72;4804726;29;20481;-73
2022/04/13 08:25:18;;;;;;;15.63;12.57;;;15.40;1.00;;;15.75;36.98;101268.38;4804972;29;20459;-72
2022/04/13 08:27:46;;;;;;;15.20;12.47;;;15.40;1.00;;;15.97;36.92;101268.75;4807995;29;20408;-73
2022/04/13 08:30:15;;;;;;;16.77;11.20;;;15.50;1.00;;;16.12;36.70;101268.38;4806498;29;20823;-73
2022/04/13 08:32:45;;;;;;;19.57;13.37;;;15.60;1.00;;;16.03;36.37;101270.56;4836158;29;20478;-73
2022/04/13 08:35:14;;;;;;;15.40;12.10;;;15.60;1.00;;;16.09;36.50;101275.94;4805961;29;20500;-73
2022/04/13 08:37:43;;;;;;;15.93;12.27;;;15.70;1.00;;;16.27;36.45;101276.97;4805829;29;20455;-73
2022/04/13 08:40:13;;;;;;;21.00;12.67;;;15.80;1.00;;;16.28;36.58;101273.19;4805250;29;20426;-73
2022/04/13 08:43:03;;;;;;;14.30;11.30;;;15.70;1.00;;;16.63;36.24;101271.47;4804336;29;20878;-73
2022/04/13 08:45:38;;;;;;;14.73;11.80;;;16.00;1.00;;;16.99;35.60;101272.38;4805850;29;20467;-73
2022/04/13 08:48:13;;;;;;;18.27;14.97;;;16.40;1.00;;;16.68;35.60;101273.50;4806580;29;20462;-73
2022/04/13 08:50:46;;;;;;;18.20;12.30;;;16.40;1.00;;;16.72;35.89;101270.06;4805956;29;20515;-72
2022/04/13 08:53:21;;;;;;;18.23;12.97;;;16.40;1.00;;;16.94;35.65;101268.44;4804868;29;20474;-74
2022/04/13 08:55:55;;;;;;;31.93;24.30;;;16.50;1.00;;;17.18;35.19;101271.22;4804022;29;20469;-71
2022/04/13 08:58:41;;;;;;;19.53;13.43;;;16.60;1.00;;;16.92;35.34;101267.00;4803423;29;20513;-72
2022/04/13 09:01:20;;;;;;;17.33;12.37;;;16.50;1.00;;;16.78;35.71;101266.41;4805383;29;20517;-72
2022/04/13 09:03:56;;;;;;;23.87;16.50;;;16.40;1.00;;;16.85;35.71;101264.38;4804914;29;20474;-73
2022/04/13 09:06:29;;;;;;;18.27;13.23;;;16.40;1.00;;;17.07;35.59;101267.41;4807599;29;20420;-74
2022/04/13 09:09:02;;;;;;;16.07;12.60;;;16.60;1.00;;;17.47;34.88;101262.06;4808417;29;20417;-74
2022/04/13 09:11:32;;;;;;;17.17;13.00;;;16.80;1.00;;;17.30;34.94;101255.63;4808198;29;20494;-73
2022/04/13 09:14:04;;;;;;;16.30;11.90;;;16.90;1.00;;;17.11;35.03;101246.72;4825933;24;20501;-67
2022/04/13 09:16:35;;;;;;;16.90;12.70;;;16.80;1.00;;;17.35;35.06;101258.50;4825987;29;20405;-67
2022/04/13 09:19:05;;;;;;;23.07;13.40;;;16.90;1.00;;;17.57;35.01;101248.59;4833176;29;20409;-65
2022/04/13 09:21:34;;;;;;;21.40;13.43;;;17.00;1.00;;;17.52;34.63;101248.50;4830245;29;20408;-67
2022/04/13 09:24:07;;;;;;;15.20;12.40;;;17.10;1.00;;;17.27;35.08;101247.91;4827484;29;20772;-67
2022/04/13 09:26:38;;;;;;;15.00;13.00;;;17.00;1.00;;;17.30;35.52;101248.25;4826288;29;20441;-66
2022/04/13 09:29:06;;;;;;;16.20;11.70;;;16.90;1.00;;;17.48;35.11;101247.28;4837098;23;20505;-64
2022/04/13 09:31:36;;;;;;;15.90;12.30;;;17.00;1.00;;;17.44;34.88;101251.59;4815547;29;20420;-64
2022/04/13 09:34:06;;;;;;;16.57;13.77;;;17.00;1.00;;;17.55;34.90;101248.00;4806753;29;20521;-64
2022/04/13 09:36:36;;;;;;;20.50;12.67;;;17.10;1.00;;;17.47;34.94;101253.03;4810492;29;20976;-65
2022/04/13 09:39:06;;;;;;;16.43;13.20;;;17.10;1.00;;;17.60;34.61;101250.91;4824709;29;20433;-65
2022/04/13 09:41:36;;;;;;;16.17;13.10;;;17.20;1.00;;;17.81;34.28;101244.78;4825156;29;20448;-65
2022/04/13 09:44:18;;;;;;;16.50;12.80;;;17.40;1.00;;;17.74;34.38;101252.31;4813772;29;20515;-69
2022/04/13 09:46:47;;;;;;;18.10;12.07;;;17.30;1.00;;;17.98;34.20;101252.25;4806328;29;20436;-64
2022/04/13 09:49:20;;;;;;;23.57;13.43;;;17.50;1.00;;;18.26;34.09;101252.25;4807121;29;21107;-64
2022/04/13 09:51:50;;;;;;;14.93;13.00;;;17.70;1.00;;;18.10;33.73;101240.19;4806975;29;20434;-65
2022/04/13 09:54:26;;;;;;;18.10;11.40;;;17.70;1.00;;;18.17;34.08;101240.03;4806968;29;20472;-65
2022/04/13 09:56:55;;;;;;;17.77;11.87;;;17.80;1.00;;;18.00;34.32;101239.16;4806850;29;20472;-66
2022/04/13 09:59:28;;;;;;;12.50;10.70;;;17.70;1.00;;;18.32;34.19;101237.59;4807099;29;20430;-65
2022/04/13 10:01:58;;;;;;;17.80;12.50;;;17.80;1.00;;;18.59;33.35;101230.44;4805869;29;20406;-66
2022/04/13 10:04:30;;;;;;;17.00;11.07;;;18.10;1.00;;;18.82;32.77;101229.50;4806665;29;20389;-65
2022/04/13 10:07:15;;;;;;;14.57;12.63;;;18.30;1.00;;;18.75;32.74;101231.56;4806204;29;20427;-66
2022/04/13 10:09:44;;;;;;;17.63;11.43;;;18.30;1.00;;;18.85;32.95;101228.16;4806411;29;20439;-64
2022/04/13 10:12:13;;;;;;;14.70;11.90;;;18.50;1.00;;;18.87;32.92;101226.00;4806487;29;20413;-64
2022/04/13 10:14:41;;;;;;;16.90;12.97;;;18.50;1.00;;;19.27;32.77;101223.88;4806419;29;20453;-65
2022/04/13 10:17:13;;;;;;;15.23;13.43;;;18.70;1.00;;;19.32;32.32;101223.97;4805567;29;21008;-65
2022/04/13 10:19:44;;;;;;;14.53;12.10;;;18.80;1.00;;;19.33;32.67;101219.31;4806266;29;20444;-64
2022/04/13 10:22:13;;;;;;;14.13;12.60;;;18.80;1.00;;;19.59;31.99;101218.63;4806425;29;20441;-64
2022/04/13 10:24:42;;;;;;;16.87;12.10;;;19.00;1.00;;;19.71;31.55;101224.00;4806986;29;20723;-65